sensor_id;sensor_type;location;lat;lon;timestamp;P1;durP1;ratioP1;P2;durP2;ratioP2
5776;SDS011;2914;42.668;23.346;2023-03-14T00:01:51;12.30;;;7.50;;
5776;SDS011;2914;42.668;23.346;2023-03-14T00:04:20;14.33;;;8.40;;
5776;SDS011;2914;42.668;23.346;2023-03-14T00:06:50;28.37;;;8.97;;
5776;SDS011;2914;42.668;23.346;2023-03-14T00:09:19;12.30;;;8.23;;
5776;SDS011;2914;42.668;23.346;2023-03-14T00:11:49;9.90;;;6.77;;
5776;SDS011;2914;42.668;23.346;2023-03-14T00:14:18;13.87;;;7.80;;
5776;SDS011;2914;42.668;23.346;2023-03-14T00:16:47;9.67;;;6.93;;
5776;SDS011;2914;42.668;23.346;2023-03-14T00:19:17;9.63;;;6.83;;
5776;SDS011;2914;42.668;23.346;2023-03-14T00:21:46;15.63;;;7.40;;
5776;SDS011;2914;42.668;23.346;2023-03-14T00:24:16;11.50;;;7.63;;
5776;SDS011;2914;42.668;23.346;2023-03-14T00:26:45;10.87;;;8.13;;
5776;SDS011;2914;42.668;23.346;2023-03-14T00:29:14;12.47;;;7.83;;
5776;SDS011;2914;42.668;23.346;2023-03-14T00:31:43;14.80;;;8.30;;
5776;SDS011;2914;42.668;23.346;2023-03-14T00:34:14;18.70;;;8.17;;
5776;SDS011;2914;42.668;23.346;2023-03-14T00:36:44;16.13;;;9.63;;
5776;SDS011;2914;42.668;23.346;2023-03-14T00:39:13;15.23;;;8.70;;
5776;SDS011;2914;42.668;23.346;2023-03-14T00:41:43;12.17;;;7.97;;
5776;SDS011;2914;42.668;23.346;2023-03-14T00:44:14;10.50;;;7.90;;
5776;SDS011;2914;42.668;23.346;2023-03-14T00:46:43;18.07;;;9.73;;
5776;SDS011;2914;42.668;23.346;2023-03-14T00:49:13;13.60;;;7.90;;
5776;SDS011;2914;42.668;23.346;2023-03-14T00:51:43;14.80;;;7.70;;
5776;SDS011;2914;42.668;23.346;2023-03-14T00:54:13;12.80;;;8.30;;
5776;SDS011;2914;42.668;23.346;2023-03-14T00:56:42;13.40;;;8.27;;
5776;SDS011;2914;42.668;23.346;2023-03-14T00:59:12;11.30;;;8.80;;
5776;SDS011;2914;42.668;23.346;2023-03-14T01:01:43;12.07;;;9.40;;
5776;SDS011;2914;42.668;23.346;2023-03-14T01:04:12;13.00;;;8.23;;
5776;SDS011;2914;42.668;23.346;2023-03-14T01:06:42;17.13;;;8.30;;
5776;SDS011;2914;42.668;23.346;2023-03-14T01:09:12;8.90;;;6.90;;
5776;SDS011;2914;42.668;23.346;2023-03-14T01:11:43;13.23;;;8.37;;
5776;SDS011;2914;42.668;23.346;2023-03-14T01:14:13;23.33;;;7.20;;
5776;SDS011;2914;42.668;23.346;2023-03-14T01:17:00;11.87;;;7.00;;
5776;SDS011;2914;42.668;23.346;2023-03-14T01:19:30;12.27;;;7.30;;
5776;SDS011;2914;42.668;23.346;2023-03-14T01:21:59;9.57;;;7.27;;
5776;SDS011;2914;42.668;23.346;2023-03-14T01:24:29;20.67;;;8.13;;
5776;SDS011;2914;42.668;23.346;2023-03-14T01:27:07;11.77;;;8.10;;
5776;SDS011;2914;42.668;23.346;2023-03-14T01:29:38;10.43;;;7.80;;
5776;SDS011;2914;42.668;23.346;2023-03-14T01:32:07;10.30;;;8.10;;
5776;SDS011;2914;42.668;23.346;2023-03-14T01:34:36;24.60;;;7.90;;
5776;SDS011;2914;42.668;23.346;2023-03-14T01:37:06;11.37;;;7.90;;
5776;SDS011;2914;42.668;23.346;2023-03-14T01:39:37;25.20;;;8.13;;
5776;SDS011;2914;42.668;23.346;2023-03-14T01:42:06;8.40;;;7.37;;
5776;SDS011;2914;42.668;23.346;2023-03-14T01:44:49;15.03;;;9.30;;
5776;SDS011;2914;42.668;23.346;2023-03-14T01:47:28;9.53;;;7.77;;
5776;SDS011;2914;42.668;23.346;2023-03-14T01:49:59;12.73;;;8.10;;
5776;SDS011;2914;42.668;23.346;2023-03-14T01:52:31;15.67;;;8.43;;
5776;SDS011;2914;42.668;23.346;2023-03-14T01:55:05;14.90;;;8.70;;
5776;SDS011;2914;42.668;23.346;2023-03-14T01:57:38;14.43;;;9.70;;
5776;SDS011;2914;42.668;23.346;2023-03-14T02:00:12;21.10;;;9.80;;
5776;SDS011;2914;42.668;23.346;2023-03-14T02:02:44;18.83;;;10.90;;
5776;SDS011;2914;42.668;23.346;2023-03-14T02:05:17;20.33;;;10.27;;
5776;SDS011;2914;42.668;23.346;2023-03-14T02:07:50;15.60;;;10.20;;
5776;SDS011;2914;42.668;23.346;2023-03-14T02:10:22;23.20;;;11.40;;
5776;SDS011;2914;42.668;23.346;2023-03-14T02:12:54;29.97;;;11.67;;
5776;SDS011;2914;42.668;23.346;2023-03-14T02:15:26;21.00;;;12.70;;
5776;SDS011;2914;42.668;23.346;2023-03-14T02:17:56;27.30;;;13.63;;
5776;SDS011;2914;42.668;23.346;2023-03-14T02:20:30;26.07;;;12.93;;
5776;SDS011;2914;42.668;23.346;2023-03-14T02:23:07;27.40;;;13.17;;
5776;SDS011;2914;42.668;23.346;2023-03-14T02:25:40;28.13;;;14.50;;
5776;SDS011;2914;42.668;23.346;2023-03-14T02:28:18;23.57;;;13.70;;
5776;SDS011;2914;42.668;23.346;2023-03-14T02:30:49;22.63;;;13.50;;
5776;SDS011;2914;42.668;23.346;2023-03-14T02:33:19;21.90;;;13.87;;
5776;SDS011;2914;42.668;23.346;2023-03-14T02:35:50;21.87;;;12.83;;
5776;SDS011;2914;42.668;23.346;2023-03-14T02:38:23;24.10;;;12.73;;
5776;SDS011;2914;42.668;23.346;2023-03-14T02:40:56;31.90;;;14.10;;
5776;SDS011;2914;42.668;23.346;2023-03-14T02:43:26;25.60;;;13.37;;
5776;SDS011;2914;42.668;23.346;2023-03-14T02:45:56;21.20;;;12.57;;
5776;SDS011;2914;42.668;23.346;2023-03-14T02:48:26;24.37;;;13.97;;
5776;SDS011;2914;42.668;23.346;2023-03-14T02:50:59;24.83;;;13.67;;
5776;SDS011;2914;42.668;23.346;2023-03-14T02:53:30;20.50;;;12.97;;
5776;SDS011;2914;42.668;23.346;2023-03-14T02:56:01;23.53;;;13.13;;
5776;SDS011;2914;42.668;23.346;2023-03-14T02:58:31;23.20;;;13.23;;
5776;SDS011;2914;42.668;23.346;2023-03-14T03:01:00;21.90;;;13.00;;
5776;SDS011;2914;42.668;23.346;2023-03-14T03:03:30;22.07;;;13.00;;
5776;SDS011;2914;42.668;23.346;2023-03-14T03:06:03;27.60;;;13.07;;
5776;SDS011;2914;42.668;23.346;2023-03-14T03:08:38;22.73;;;13.20;;
5776;SDS011;2914;42.668;23.346;2023-03-14T03:11:09;19.13;;;11.77;;
5776;SDS011;2914;42.668;23.346;2023-03-14T03:13:38;22.50;;;11.97;;
5776;SDS011;2914;42.668;23.346;2023-03-14T03:16:08;24.17;;;12.80;;
5776;SDS011;2914;42.668;23.346;2023-03-14T03:18:39;25.70;;;13.47;;
5776;SDS011;2914;42.668;23.346;2023-03-14T03:21:08;21.07;;;13.10;;
5776;SDS011;2914;42.668;23.346;2023-03-14T03:23:38;24.17;;;12.50;;
5776;SDS011;2914;42.668;23.346;2023-03-14T03:26:08;20.63;;;13.10;;
5776;SDS011;2914;42.668;23.346;2023-03-14T03:28:39;26.90;;;12.03;;
5776;SDS011;2914;42.668;23.346;2023-03-14T03:31:09;21.07;;;11.60;;
5776;SDS011;2914;42.668;23.346;2023-03-14T03:33:48;18.63;;;11.80;;
5776;SDS011;2914;42.668;23.346;2023-03-14T03:36:20;17.30;;;10.40;;
5776;SDS011;2914;42.668;23.346;2023-03-14T03:38:50;17.50;;;10.50;;
5776;SDS011;2914;42.668;23.346;2023-03-14T03:41:21;14.10;;;9.53;;
5776;SDS011;2914;42.668;23.346;2023-03-14T03:43:50;12.77;;;9.53;;
5776;SDS011;2914;42.668;23.346;2023-03-14T03:46:21;16.37;;;10.23;;
5776;SDS011;2914;42.668;23.346;2023-03-14T03:48:55;16.70;;;10.97;;
5776;SDS011;2914;42.668;23.346;2023-03-14T03:51:25;10.60;;;8.07;;
5776;SDS011;2914;42.668;23.346;2023-03-14T03:53:56;15.17;;;8.63;;
5776;SDS011;2914;42.668;23.346;2023-03-14T03:56:27;13.03;;;8.00;;
5776;SDS011;2914;42.668;23.346;2023-03-14T03:58:58;15.57;;;9.37;;
5776;SDS011;2914;42.668;23.346;2023-03-14T04:01:27;21.00;;;10.17;;
5776;SDS011;2914;42.668;23.346;2023-03-14T04:03:57;17.83;;;9.40;;
5776;SDS011;2914;42.668;23.346;2023-03-14T04:06:27;13.57;;;9.30;;
5776;SDS011;2914;42.668;23.346;2023-03-14T04:08:57;22.87;;;9.43;;
5776;SDS011;2914;42.668;23.346;2023-03-14T04:11:26;27.00;;;10.77;;
5776;SDS011;2914;42.668;23.346;2023-03-14T04:13:55;18.23;;;10.63;;
5776;SDS011;2914;42.668;23.346;2023-03-14T04:16:33;21.10;;;11.93;;
5776;SDS011;2914;42.668;23.346;2023-03-14T04:19:03;22.90;;;11.93;;
5776;SDS011;2914;42.668;23.346;2023-03-14T04:21:32;20.20;;;11.53;;
5776;SDS011;2914;42.668;23.346;2023-03-14T04:24:02;118.67;;;50.37;;
5776;SDS011;2914;42.668;23.346;2023-03-14T04:26:32;97.93;;;44.43;;
5776;SDS011;2914;42.668;23.346;2023-03-14T04:29:01;62.27;;;28.10;;
5776;SDS011;2914;42.668;23.346;2023-03-14T04:31:31;36.80;;;21.53;;
5776;SDS011;2914;42.668;23.346;2023-03-14T04:34:01;34.73;;;16.13;;
5776;SDS011;2914;42.668;23.346;2023-03-14T04:36:31;42.80;;;21.13;;
5776;SDS011;2914;42.668;23.346;2023-03-14T04:39:01;59.33;;;26.80;;
5776;SDS011;2914;42.668;23.346;2023-03-14T04:41:31;85.60;;;38.97;;
5776;SDS011;2914;42.668;23.346;2023-03-14T04:44:00;79.17;;;36.90;;
5776;SDS011;2914;42.668;23.346;2023-03-14T04:46:30;38.67;;;20.07;;
5776;SDS011;2914;42.668;23.346;2023-03-14T04:48:59;28.33;;;15.53;;
5776;SDS011;2914;42.668;23.346;2023-03-14T04:51:30;28.97;;;15.37;;
5776;SDS011;2914;42.668;23.346;2023-03-14T04:54:15;29.80;;;13.90;;
5776;SDS011;2914;42.668;23.346;2023-03-14T04:56:44;27.40;;;14.30;;
5776;SDS011;2914;42.668;23.346;2023-03-14T04:59:13;29.87;;;15.40;;
5776;SDS011;2914;42.668;23.346;2023-03-14T05:01:43;24.70;;;14.40;;
5776;SDS011;2914;42.668;23.346;2023-03-14T05:04:14;28.50;;;14.33;;
5776;SDS011;2914;42.668;23.346;2023-03-14T05:06:43;23.20;;;14.70;;
5776;SDS011;2914;42.668;23.346;2023-03-14T05:09:12;25.87;;;14.83;;
5776;SDS011;2914;42.668;23.346;2023-03-14T05:11:42;25.50;;;14.87;;
5776;SDS011;2914;42.668;23.346;2023-03-14T05:14:12;27.37;;;15.60;;
5776;SDS011;2914;42.668;23.346;2023-03-14T05:16:41;23.17;;;14.03;;
5776;SDS011;2914;42.668;23.346;2023-03-14T05:19:12;35.00;;;17.87;;
5776;SDS011;2914;42.668;23.346;2023-03-14T05:21:41;36.13;;;18.23;;
5776;SDS011;2914;42.668;23.346;2023-03-14T05:24:10;36.23;;;19.90;;
5776;SDS011;2914;42.668;23.346;2023-03-14T05:26:40;27.23;;;16.97;;
5776;SDS011;2914;42.668;23.346;2023-03-14T05:29:09;35.50;;;18.50;;
5776;SDS011;2914;42.668;23.346;2023-03-14T05:31:38;34.37;;;20.30;;
5776;SDS011;2914;42.668;23.346;2023-03-14T05:34:07;34.80;;;18.10;;
5776;SDS011;2914;42.668;23.346;2023-03-14T05:36:37;32.33;;;19.03;;
5776;SDS011;2914;42.668;23.346;2023-03-14T05:39:07;39.57;;;20.37;;
5776;SDS011;2914;42.668;23.346;2023-03-14T05:41:36;31.97;;;18.43;;
5776;SDS011;2914;42.668;23.346;2023-03-14T05:44:05;29.20;;;18.13;;
5776;SDS011;2914;42.668;23.346;2023-03-14T05:46:49;23.87;;;17.00;;
5776;SDS011;2914;42.668;23.346;2023-03-14T05:49:18;26.90;;;15.27;;
5776;SDS011;2914;42.668;23.346;2023-03-14T05:52:07;25.07;;;15.63;;
5776;SDS011;2914;42.668;23.346;2023-03-14T05:54:46;23.63;;;14.77;;
5776;SDS011;2914;42.668;23.346;2023-03-14T05:57:15;30.93;;;15.37;;
5776;SDS011;2914;42.668;23.346;2023-03-14T06:00:00;25.40;;;15.00;;
5776;SDS011;2914;42.668;23.346;2023-03-14T06:02:32;21.97;;;14.37;;
5776;SDS011;2914;42.668;23.346;2023-03-14T06:05:10;26.53;;;14.77;;
5776;SDS011;2914;42.668;23.346;2023-03-14T06:07:44;27.67;;;16.20;;
5776;SDS011;2914;42.668;23.346;2023-03-14T06:10:15;26.77;;;14.83;;
5776;SDS011;2914;42.668;23.346;2023-03-14T06:13:05;22.07;;;14.03;;
5776;SDS011;2914;42.668;23.346;2023-03-14T06:15:36;24.13;;;14.77;;
5776;SDS011;2914;42.668;23.346;2023-03-14T06:18:23;27.57;;;13.97;;
5776;SDS011;2914;42.668;23.346;2023-03-14T06:20:56;20.47;;;13.93;;
5776;SDS011;2914;42.668;23.346;2023-03-14T06:26:37;31.23;;;15.93;;
5776;SDS011;2914;42.668;23.346;2023-03-14T06:29:10;25.47;;;14.03;;
5776;SDS011;2914;42.668;23.346;2023-03-14T06:32:02;22.00;;;13.77;;
5776;SDS011;2914;42.668;23.346;2023-03-14T06:34:41;17.80;;;11.73;;
5776;SDS011;2914;42.668;23.346;2023-03-14T06:37:20;19.20;;;10.93;;
5776;SDS011;2914;42.668;23.346;2023-03-14T06:39:49;18.90;;;12.07;;
5776;SDS011;2914;42.668;23.346;2023-03-14T06:42:19;20.03;;;12.50;;
5776;SDS011;2914;42.668;23.346;2023-03-14T06:44:49;26.97;;;12.97;;
5776;SDS011;2914;42.668;23.346;2023-03-14T06:53:43;17.53;;;11.50;;
5776;SDS011;2914;42.668;23.346;2023-03-14T06:56:49;16.73;;;11.70;;
5776;SDS011;2914;42.668;23.346;2023-03-14T06:59:28;20.63;;;11.70;;
5776;SDS011;2914;42.668;23.346;2023-03-14T07:01:58;26.03;;;12.10;;
5776;SDS011;2914;42.668;23.346;2023-03-14T07:04:28;18.03;;;11.07;;
5776;SDS011;2914;42.668;23.346;2023-03-14T07:06:57;25.73;;;11.33;;
5776;SDS011;2914;42.668;23.346;2023-03-14T07:09:26;19.73;;;10.80;;
5776;SDS011;2914;42.668;23.346;2023-03-14T07:11:55;20.93;;;11.70;;
5776;SDS011;2914;42.668;23.346;2023-03-14T07:14:25;17.43;;;10.43;;
5776;SDS011;2914;42.668;23.346;2023-03-14T07:17:09;12.63;;;10.00;;
5776;SDS011;2914;42.668;23.346;2023-03-14T07:19:38;19.70;;;9.40;;
5776;SDS011;2914;42.668;23.346;2023-03-14T07:22:07;14.93;;;10.33;;
5776;SDS011;2914;42.668;23.346;2023-03-14T07:24:36;14.50;;;9.83;;
5776;SDS011;2914;42.668;23.346;2023-03-14T07:27:06;18.97;;;11.20;;
5776;SDS011;2914;42.668;23.346;2023-03-14T07:29:35;23.70;;;10.90;;
5776;SDS011;2914;42.668;23.346;2023-03-14T07:32:04;15.77;;;11.20;;
5776;SDS011;2914;42.668;23.346;2023-03-14T07:34:34;15.07;;;11.17;;
5776;SDS011;2914;42.668;23.346;2023-03-14T07:37:03;20.60;;;11.40;;
5776;SDS011;2914;42.668;23.346;2023-03-14T07:39:32;16.83;;;11.23;;
5776;SDS011;2914;42.668;23.346;2023-03-14T07:42:01;24.40;;;12.93;;
5776;SDS011;2914;42.668;23.346;2023-03-14T07:44:31;16.60;;;12.10;;
5776;SDS011;2914;42.668;23.346;2023-03-14T07:47:00;17.13;;;12.00;;
5776;SDS011;2914;42.668;23.346;2023-03-14T07:49:29;22.67;;;13.83;;
5776;SDS011;2914;42.668;23.346;2023-03-14T07:51:58;21.13;;;13.57;;
5776;SDS011;2914;42.668;23.346;2023-03-14T07:54:27;28.60;;;13.90;;
5776;SDS011;2914;42.668;23.346;2023-03-14T07:56:57;23.77;;;13.47;;
5776;SDS011;2914;42.668;23.346;2023-03-14T07:59:26;18.63;;;12.63;;
5776;SDS011;2914;42.668;23.346;2023-03-14T08:01:56;18.00;;;12.70;;
5776;SDS011;2914;42.668;23.346;2023-03-14T08:04:25;31.93;;;13.33;;
5776;SDS011;2914;42.668;23.346;2023-03-14T08:06:54;24.33;;;13.43;;
5776;SDS011;2914;42.668;23.346;2023-03-14T08:09:24;22.10;;;12.30;;
5776;SDS011;2914;42.668;23.346;2023-03-14T08:11:53;16.70;;;11.17;;
5776;SDS011;2914;42.668;23.346;2023-03-14T08:14:22;16.10;;;10.97;;
5776;SDS011;2914;42.668;23.346;2023-03-14T08:16:51;23.77;;;11.10;;
5776;SDS011;2914;42.668;23.346;2023-03-14T08:19:20;19.30;;;13.43;;
5776;SDS011;2914;42.668;23.346;2023-03-14T08:21:50;22.07;;;13.40;;
5776;SDS011;2914;42.668;23.346;2023-03-14T08:24:20;21.30;;;13.47;;
5776;SDS011;2914;42.668;23.346;2023-03-14T08:26:50;19.03;;;12.90;;
5776;SDS011;2914;42.668;23.346;2023-03-14T08:29:19;19.40;;;11.90;;
5776;SDS011;2914;42.668;23.346;2023-03-14T08:31:48;24.20;;;12.90;;
5776;SDS011;2914;42.668;23.346;2023-03-14T08:34:17;29.73;;;12.90;;
5776;SDS011;2914;42.668;23.346;2023-03-14T08:36:46;21.43;;;12.60;;
5776;SDS011;2914;42.668;23.346;2023-03-14T08:39:16;16.53;;;11.70;;
5776;SDS011;2914;42.668;23.346;2023-03-14T08:41:45;13.43;;;11.07;;
5776;SDS011;2914;42.668;23.346;2023-03-14T08:44:16;15.60;;;11.97;;
5776;SDS011;2914;42.668;23.346;2023-03-14T08:46:45;21.17;;;12.43;;
5776;SDS011;2914;42.668;23.346;2023-03-14T08:49:14;19.60;;;11.60;;
5776;SDS011;2914;42.668;23.346;2023-03-14T08:51:43;17.50;;;11.83;;
5776;SDS011;2914;42.668;23.346;2023-03-14T08:54:12;15.40;;;10.03;;
5776;SDS011;2914;42.668;23.346;2023-03-14T08:56:41;19.73;;;12.20;;
5776;SDS011;2914;42.668;23.346;2023-03-14T08:59:10;23.07;;;10.87;;
5776;SDS011;2914;42.668;23.346;2023-03-14T09:01:40;22.90;;;11.70;;
5776;SDS011;2914;42.668;23.346;2023-03-14T09:04:11;18.70;;;11.03;;
5776;SDS011;2914;42.668;23.346;2023-03-14T09:06:40;16.17;;;10.10;;
5776;SDS011;2914;42.668;23.346;2023-03-14T09:09:10;17.97;;;10.80;;
5776;SDS011;2914;42.668;23.346;2023-03-14T09:11:39;18.10;;;11.77;;
5776;SDS011;2914;42.668;23.346;2023-03-14T09:14:08;21.63;;;10.90;;
5776;SDS011;2914;42.668;23.346;2023-03-14T09:16:38;46.30;;;11.77;;
5776;SDS011;2914;42.668;23.346;2023-03-14T09:19:07;17.00;;;9.90;;
5776;SDS011;2914;42.668;23.346;2023-03-14T09:21:36;17.30;;;9.47;;
5776;SDS011;2914;42.668;23.346;2023-03-14T09:24:06;13.33;;;9.87;;
5776;SDS011;2914;42.668;23.346;2023-03-14T09:26:35;15.43;;;8.40;;
5776;SDS011;2914;42.668;23.346;2023-03-14T09:29:04;16.17;;;8.90;;
5776;SDS011;2914;42.668;23.346;2023-03-14T09:31:33;13.03;;;9.23;;
5776;SDS011;2914;42.668;23.346;2023-03-14T09:34:03;12.63;;;9.40;;
5776;SDS011;2914;42.668;23.346;2023-03-14T09:36:32;14.90;;;9.50;;
5776;SDS011;2914;42.668;23.346;2023-03-14T09:39:01;11.77;;;8.40;;
5776;SDS011;2914;42.668;23.346;2023-03-14T09:41:31;13.27;;;8.83;;
5776;SDS011;2914;42.668;23.346;2023-03-14T09:44:04;17.10;;;9.57;;
5776;SDS011;2914;42.668;23.346;2023-03-14T09:46:35;16.13;;;9.23;;
5776;SDS011;2914;42.668;23.346;2023-03-14T09:49:09;13.83;;;8.13;;
5776;SDS011;2914;42.668;23.346;2023-03-14T09:51:41;15.93;;;7.90;;
5776;SDS011;2914;42.668;23.346;2023-03-14T09:54:16;21.17;;;9.00;;
5776;SDS011;2914;42.668;23.346;2023-03-14T09:56:48;12.17;;;8.50;;
5776;SDS011;2914;42.668;23.346;2023-03-14T09:59:18;13.10;;;8.77;;
5776;SDS011;2914;42.668;23.346;2023-03-14T10:01:47;14.53;;;9.33;;
5776;SDS011;2914;42.668;23.346;2023-03-14T10:04:18;14.07;;;8.03;;
5776;SDS011;2914;42.668;23.346;2023-03-14T10:06:50;13.07;;;9.30;;
5776;SDS011;2914;42.668;23.346;2023-03-14T10:09:20;12.97;;;8.20;;
5776;SDS011;2914;42.668;23.346;2023-03-14T10:11:52;13.30;;;8.20;;
5776;SDS011;2914;42.668;23.346;2023-03-14T10:14:32;20.87;;;9.87;;
5776;SDS011;2914;42.668;23.346;2023-03-14T10:17:06;16.40;;;10.17;;
5776;SDS011;2914;42.668;23.346;2023-03-14T10:19:38;13.33;;;8.90;;
5776;SDS011;2914;42.668;23.346;2023-03-14T10:22:18;18.00;;;9.70;;
5776;SDS011;2914;42.668;23.346;2023-03-14T10:24:51;12.70;;;8.63;;
5776;SDS011;2914;42.668;23.346;2023-03-14T10:27:22;16.13;;;9.63;;
5776;SDS011;2914;42.668;23.346;2023-03-14T10:29:55;13.30;;;8.83;;
5776;SDS011;2914;42.668;23.346;2023-03-14T10:32:29;13.10;;;8.07;;
5776;SDS011;2914;42.668;23.346;2023-03-14T10:35:06;13.60;;;8.43;;
5776;SDS011;2914;42.668;23.346;2023-03-14T10:37:48;16.20;;;7.90;;
5776;SDS011;2914;42.668;23.346;2023-03-14T10:40:22;21.10;;;8.00;;
5776;SDS011;2914;42.668;23.346;2023-03-14T10:42:54;10.07;;;7.53;;
5776;SDS011;2914;42.668;23.346;2023-03-14T10:45:35;9.53;;;7.57;;
5776;SDS011;2914;42.668;23.346;2023-03-14T10:48:14;10.87;;;7.10;;
5776;SDS011;2914;42.668;23.346;2023-03-14T10:50:48;10.97;;;6.90;;
5776;SDS011;2914;42.668;23.346;2023-03-14T10:53:22;8.90;;;6.80;;
5776;SDS011;2914;42.668;23.346;2023-03-14T10:55:52;14.23;;;5.93;;
5776;SDS011;2914;42.668;23.346;2023-03-14T10:58:25;6.03;;;5.43;;
5776;SDS011;2914;42.668;23.346;2023-03-14T11:01:00;5.97;;;5.10;;
5776;SDS011;2914;42.668;23.346;2023-03-14T11:03:32;11.20;;;5.20;;
5776;SDS011;2914;42.668;23.346;2023-03-14T11:06:06;4.83;;;4.43;;
5776;SDS011;2914;42.668;23.346;2023-03-14T11:08:39;10.10;;;4.23;;
5776;SDS011;2914;42.668;23.346;2023-03-14T11:11:13;9.20;;;4.57;;
5776;SDS011;2914;42.668;23.346;2023-03-14T11:13:45;5.03;;;4.50;;
5776;SDS011;2914;42.668;23.346;2023-03-14T11:16:20;4.90;;;4.50;;
5776;SDS011;2914;42.668;23.346;2023-03-14T11:19:02;4.73;;;4.13;;
5776;SDS011;2914;42.668;23.346;2023-03-14T11:21:35;8.80;;;4.33;;
5776;SDS011;2914;42.668;23.346;2023-03-14T11:24:14;5.00;;;3.97;;
5776;SDS011;2914;42.668;23.346;2023-03-14T11:26:53;8.30;;;4.60;;
5776;SDS011;2914;42.668;23.346;2023-03-14T11:29:28;8.57;;;4.90;;
5776;SDS011;2914;42.668;23.346;2023-03-14T11:32:00;4.60;;;4.20;;
5776;SDS011;2914;42.668;23.346;2023-03-14T11:34:33;5.03;;;4.30;;
5776;SDS011;2914;42.668;23.346;2023-03-14T11:37:04;9.90;;;3.90;;
5776;SDS011;2914;42.668;23.346;2023-03-14T11:39:38;4.73;;;3.97;;
5776;SDS011;2914;42.668;23.346;2023-03-14T11:42:11;6.17;;;4.20;;
5776;SDS011;2914;42.668;23.346;2023-03-14T11:44:42;3.87;;;3.67;;
5776;SDS011;2914;42.668;23.346;2023-03-14T11:47:15;7.40;;;3.87;;
5776;SDS011;2914;42.668;23.346;2023-03-14T11:49:47;7.13;;;4.67;;
5776;SDS011;2914;42.668;23.346;2023-03-14T11:52:20;3.90;;;3.70;;
5776;SDS011;2914;42.668;23.346;2023-03-14T11:54:52;4.37;;;4.07;;
5776;SDS011;2914;42.668;23.346;2023-03-14T11:57:24;6.83;;;4.13;;
5776;SDS011;2914;42.668;23.346;2023-03-14T11:59:55;4.27;;;3.97;;
5776;SDS011;2914;42.668;23.346;2023-03-14T12:02:27;5.13;;;4.10;;
5776;SDS011;2914;42.668;23.346;2023-03-14T12:08:21;4.23;;;3.27;;
5776;SDS011;2914;42.668;23.346;2023-03-14T12:10:55;5.73;;;4.40;;
5776;SDS011;2914;42.668;23.346;2023-03-14T12:13:28;12.10;;;3.87;;
5776;SDS011;2914;42.668;23.346;2023-03-14T12:15:59;4.70;;;3.60;;
5776;SDS011;2914;42.668;23.346;2023-03-14T12:18:38;12.00;;;3.60;;
5776;SDS011;2914;42.668;23.346;2023-03-14T12:21:09;2.90;;;2.70;;
5776;SDS011;2914;42.668;23.346;2023-03-14T12:23:42;3.70;;;3.40;;
5776;SDS011;2914;42.668;23.346;2023-03-14T12:26:14;11.43;;;3.10;;
5776;SDS011;2914;42.668;23.346;2023-03-14T12:28:49;3.80;;;3.50;;
5776;SDS011;2914;42.668;23.346;2023-03-14T12:34:31;5.57;;;3.67;;
5776;SDS011;2914;42.668;23.346;2023-03-14T12:37:14;9.63;;;3.40;;
5776;SDS011;2914;42.668;23.346;2023-03-14T12:39:49;3.93;;;3.53;;
5776;SDS011;2914;42.668;23.346;2023-03-14T12:42:36;3.23;;;2.90;;
5776;SDS011;2914;42.668;23.346;2023-03-14T12:45:15;3.53;;;3.23;;
5776;SDS011;2914;42.668;23.346;2023-03-14T12:47:56;3.47;;;2.50;;
5776;SDS011;2914;42.668;23.346;2023-03-14T12:50:37;3.90;;;2.80;;
5776;SDS011;2914;42.668;23.346;2023-03-14T12:56:22;9.43;;;3.27;;
5776;SDS011;2914;42.668;23.346;2023-03-14T12:59:04;3.60;;;2.80;;
5776;SDS011;2914;42.668;23.346;2023-03-14T13:01:47;3.27;;;3.07;;
5776;SDS011;2914;42.668;23.346;2023-03-14T13:04:19;3.47;;;2.83;;
5776;SDS011;2914;42.668;23.346;2023-03-14T13:06:55;3.13;;;2.93;;
5776;SDS011;2914;42.668;23.346;2023-03-14T13:12:39;2.67;;;2.47;;
5776;SDS011;2914;42.668;23.346;2023-03-14T13:15:17;3.07;;;2.77;;
5776;SDS011;2914;42.668;23.346;2023-03-14T13:17:47;4.60;;;2.63;;
5776;SDS011;2914;42.668;23.346;2023-03-14T13:20:19;4.23;;;2.83;;
5776;SDS011;2914;42.668;23.346;2023-03-14T13:22:51;3.67;;;3.37;;
5776;SDS011;2914;42.668;23.346;2023-03-14T13:25:21;2.60;;;2.40;;
5776;SDS011;2914;42.668;23.346;2023-03-14T13:27:51;3.03;;;2.73;;
5776;SDS011;2914;42.668;23.346;2023-03-14T13:30:23;7.80;;;3.07;;
5776;SDS011;2914;42.668;23.346;2023-03-14T13:32:54;3.40;;;3.10;;
5776;SDS011;2914;42.668;23.346;2023-03-14T13:35:24;5.20;;;2.50;;
5776;SDS011;2914;42.668;23.346;2023-03-14T13:37:56;4.47;;;2.87;;
5776;SDS011;2914;42.668;23.346;2023-03-14T13:40:29;2.67;;;2.47;;
5776;SDS011;2914;42.668;23.346;2023-03-14T13:43:01;4.83;;;2.87;;
5776;SDS011;2914;42.668;23.346;2023-03-14T13:45:41;2.63;;;2.40;;
5776;SDS011;2914;42.668;23.346;2023-03-14T13:48:14;2.23;;;2.10;;
5776;SDS011;2914;42.668;23.346;2023-03-14T13:50:47;2.30;;;2.20;;
5776;SDS011;2914;42.668;23.346;2023-03-14T13:53:19;2.90;;;2.50;;
5776;SDS011;2914;42.668;23.346;2023-03-14T13:55:49;2.50;;;2.40;;
5776;SDS011;2914;42.668;23.346;2023-03-14T13:58:27;5.50;;;2.70;;
5776;SDS011;2914;42.668;23.346;2023-03-14T14:00:59;3.70;;;2.40;;
5776;SDS011;2914;42.668;23.346;2023-03-14T14:03:36;2.60;;;2.37;;
5776;SDS011;2914;42.668;23.346;2023-03-14T14:06:08;9.33;;;2.50;;
5776;SDS011;2914;42.668;23.346;2023-03-14T14:08:40;3.20;;;2.23;;
5776;SDS011;2914;42.668;23.346;2023-03-14T14:11:10;6.20;;;2.40;;
5776;SDS011;2914;42.668;23.346;2023-03-14T14:13:43;2.40;;;2.20;;
5776;SDS011;2914;42.668;23.346;2023-03-14T14:16:12;2.53;;;2.37;;
5776;SDS011;2914;42.668;23.346;2023-03-14T14:18:45;3.00;;;2.80;;
5776;SDS011;2914;42.668;23.346;2023-03-14T14:21:15;2.60;;;2.40;;
5776;SDS011;2914;42.668;23.346;2023-03-14T14:23:44;4.73;;;2.50;;
5776;SDS011;2914;42.668;23.346;2023-03-14T14:26:14;2.60;;;2.40;;
5776;SDS011;2914;42.668;23.346;2023-03-14T14:28:46;2.30;;;2.20;;
5776;SDS011;2914;42.668;23.346;2023-03-14T14:31:18;2.60;;;2.47;;
5776;SDS011;2914;42.668;23.346;2023-03-14T14:33:55;4.83;;;2.60;;
5776;SDS011;2914;42.668;23.346;2023-03-14T14:36:26;4.17;;;2.50;;
5776;SDS011;2914;42.668;23.346;2023-03-14T14:38:59;5.67;;;2.77;;
5776;SDS011;2914;42.668;23.346;2023-03-14T14:41:31;2.33;;;2.13;;
5776;SDS011;2914;42.668;23.346;2023-03-14T14:44:03;7.03;;;2.10;;
5776;SDS011;2914;42.668;23.346;2023-03-14T14:46:33;8.53;;;2.50;;
5776;SDS011;2914;42.668;23.346;2023-03-14T14:49:05;2.80;;;2.60;;
5776;SDS011;2914;42.668;23.346;2023-03-14T14:51:39;5.00;;;2.00;;
5776;SDS011;2914;42.668;23.346;2023-03-14T14:54:12;3.00;;;2.80;;
5776;SDS011;2914;42.668;23.346;2023-03-14T14:56:47;17.43;;;2.60;;
5776;SDS011;2914;42.668;23.346;2023-03-14T14:59:22;2.20;;;2.10;;
5776;SDS011;2914;42.668;23.346;2023-03-14T15:01:58;3.27;;;2.23;;
5776;SDS011;2914;42.668;23.346;2023-03-14T15:04:30;9.03;;;2.10;;
5776;SDS011;2914;42.668;23.346;2023-03-14T15:07:00;5.63;;;2.00;;
5776;SDS011;2914;42.668;23.346;2023-03-14T15:09:29;2.40;;;2.20;;
5776;SDS011;2914;42.668;23.346;2023-03-14T15:11:59;2.80;;;2.70;;
5776;SDS011;2914;42.668;23.346;2023-03-14T15:14:28;3.50;;;2.73;;
5776;SDS011;2914;42.668;23.346;2023-03-14T15:16:57;2.60;;;2.40;;
5776;SDS011;2914;42.668;23.346;2023-03-14T15:19:26;5.23;;;2.50;;
5776;SDS011;2914;42.668;23.346;2023-03-14T15:21:58;3.37;;;2.50;;
5776;SDS011;2914;42.668;23.346;2023-03-14T15:24:27;3.97;;;2.83;;
5776;SDS011;2914;42.668;23.346;2023-03-14T15:26:56;2.40;;;2.20;;
5776;SDS011;2914;42.668;23.346;2023-03-14T15:29:25;3.67;;;2.17;;
5776;SDS011;2914;42.668;23.346;2023-03-14T15:31:54;2.57;;;2.37;;
5776;SDS011;2914;42.668;23.346;2023-03-14T15:34:24;2.87;;;2.40;;
5776;SDS011;2914;42.668;23.346;2023-03-14T15:36:54;2.27;;;2.13;;